sensor_id;sensor_type;location;lat;lon;timestamp;P1;durP1;ratioP1;P2;durP2;ratioP2
27977;SDS011;15314;49.248;6.968;2023-04-25T00:00:51;15.05;;;13.90;;
27977;SDS011;15314;49.248;6.968;2023-04-25T00:01:52;13.57;;;12.48;;
27977;SDS011;15314;49.248;6.968;2023-04-25T00:02:53;14.45;;;13.15;;
27977;SDS011;15314;49.248;6.968;2023-04-25T00:03:55;16.63;;;14.95;;
27977;SDS011;15314;49.248;6.968;2023-04-25T00:04:57;18.15;;;16.45;;
27977;SDS011;15314;49.248;6.968;2023-04-25T00:05:59;14.45;;;13.25;;
27977;SDS011;15314;49.248;6.968;2023-04-25T00:07:03;13.95;;;12.85;;
27977;SDS011;15314;49.248;6.968;2023-04-25T00:08:04;15.70;;;14.30;;
27977;SDS011;15314;49.248;6.968;2023-04-25T00:09:05;14.10;;;13.00;;
27977;SDS011;15314;49.248;6.968;2023-04-25T00:10:11;14.05;;;13.00;;
27977;SDS011;15314;49.248;6.968;2023-04-25T00:11:12;14.63;;;13.50;;
27977;SDS011;15314;49.248;6.968;2023-04-25T00:12:12;13.77;;;12.77;;
27977;SDS011;15314;49.248;6.968;2023-04-25T00:13:13;14.52;;;13.32;;
27977;SDS011;15314;49.248;6.968;2023-04-25T00:14:14;13.60;;;12.60;;
27977;SDS011;15314;49.248;6.968;2023-04-25T00:15:16;14.35;;;13.25;;
27977;SDS011;15314;49.248;6.968;2023-04-25T00:16:17;14.18;;;12.98;;
27977;SDS011;15314;49.248;6.968;2023-04-25T00:17:18;14.60;;;13.40;;
27977;SDS011;15314;49.248;6.968;2023-04-25T00:18:19;13.80;;;12.73;;
27977;SDS011;15314;49.248;6.968;2023-04-25T00:19:20;15.80;;;14.40;;
27977;SDS011;15314;49.248;6.968;2023-04-25T00:20:21;14.88;;;13.77;;
27977;SDS011;15314;49.248;6.968;2023-04-25T00:21:23;15.32;;;14.07;;
27977;SDS011;15314;49.248;6.968;2023-04-25T00:22:24;13.52;;;12.52;;
27977;SDS011;15314;49.248;6.968;2023-04-25T00:23:25;13.57;;;12.48;;
27977;SDS011;15314;49.248;6.968;2023-04-25T00:24:26;14.10;;;13.00;;
27977;SDS011;15314;49.248;6.968;2023-04-25T00:25:27;13.63;;;12.45;;
27977;SDS011;15314;49.248;6.968;2023-04-25T00:26:27;14.05;;;12.80;;
27977;SDS011;15314;49.248;6.968;2023-04-25T00:27:28;14.70;;;13.50;;
27977;SDS011;15314;49.248;6.968;2023-04-25T00:28:28;14.77;;;13.63;;
27977;SDS011;15314;49.248;6.968;2023-04-25T00:29:29;15.23;;;14.07;;
27977;SDS011;15314;49.248;6.968;2023-04-25T00:30:30;15.85;;;14.55;;
27977;SDS011;15314;49.248;6.968;2023-04-25T00:31:30;15.23;;;14.02;;
27977;SDS011;15314;49.248;6.968;2023-04-25T00:32:31;15.27;;;13.98;;
27977;SDS011;15314;49.248;6.968;2023-04-25T00:33:32;15.88;;;14.13;;
27977;SDS011;15314;49.248;6.968;2023-04-25T00:34:33;14.48;;;13.18;;
27977;SDS011;15314;49.248;6.968;2023-04-25T00:35:33;15.07;;;13.90;;
27977;SDS011;15314;49.248;6.968;2023-04-25T00:36:34;14.40;;;13.18;;
27977;SDS011;15314;49.248;6.968;2023-04-25T00:37:36;14.68;;;13.48;;
27977;SDS011;15314;49.248;6.968;2023-04-25T00:38:37;15.10;;;13.75;;
27977;SDS011;15314;49.248;6.968;2023-04-25T00:39:38;14.98;;;13.77;;
27977;SDS011;15314;49.248;6.968;2023-04-25T00:40:38;14.80;;;13.35;;
27977;SDS011;15314;49.248;6.968;2023-04-25T00:41:39;13.13;;;12.15;;
27977;SDS011;15314;49.248;6.968;2023-04-25T00:42:40;14.38;;;13.02;;
27977;SDS011;15314;49.248;6.968;2023-04-25T00:43:42;14.35;;;13.15;;
27977;SDS011;15314;49.248;6.968;2023-04-25T00:44:44;14.30;;;13.00;;
27977;SDS011;15314;49.248;6.968;2023-04-25T00:45:45;14.38;;;13.13;;
27977;SDS011;15314;49.248;6.968;2023-04-25T00:46:47;13.40;;;12.50;;
27977;SDS011;15314;49.248;6.968;2023-04-25T00:47:49;14.70;;;13.40;;
27977;SDS011;15314;49.248;6.968;2023-04-25T00:48:50;15.75;;;14.38;;
27977;SDS011;15314;49.248;6.968;2023-04-25T00:49:50;14.88;;;13.57;;
27977;SDS011;15314;49.248;6.968;2023-04-25T00:50:54;14.52;;;13.32;;
27977;SDS011;15314;49.248;6.968;2023-04-25T00:51:56;15.10;;;14.00;;
27977;SDS011;15314;49.248;6.968;2023-04-25T00:52:57;16.17;;;14.77;;
27977;SDS011;15314;49.248;6.968;2023-04-25T00:53:58;14.73;;;13.48;;
27977;SDS011;15314;49.248;6.968;2023-04-25T00:55:00;15.32;;;14.02;;
27977;SDS011;15314;49.248;6.968;2023-04-25T00:56:01;14.68;;;13.30;;
27977;SDS011;15314;49.248;6.968;2023-04-25T00:57:01;16.15;;;14.68;;
27977;SDS011;15314;49.248;6.968;2023-04-25T00:58:02;16.02;;;14.73;;
27977;SDS011;15314;49.248;6.968;2023-04-25T00:59:03;16.00;;;14.70;;
27977;SDS011;15314;49.248;6.968;2023-04-25T01:00:05;15.30;;;13.98;;
27977;SDS011;15314;49.248;6.968;2023-04-25T01:01:06;15.70;;;14.52;;
27977;SDS011;15314;49.248;6.968;2023-04-25T01:02:09;17.23;;;15.15;;
27977;SDS011;15314;49.248;6.968;2023-04-25T01:03:10;15.05;;;13.55;;
27977;SDS011;15314;49.248;6.968;2023-04-25T01:04:10;14.73;;;13.63;;
27977;SDS011;15314;49.248;6.968;2023-04-25T01:05:11;14.88;;;13.65;;
27977;SDS011;15314;49.248;6.968;2023-04-25T01:06:12;17.33;;;15.80;;
27977;SDS011;15314;49.248;6.968;2023-04-25T01:07:13;15.93;;;14.57;;
27977;SDS011;15314;49.248;6.968;2023-04-25T01:08:15;15.65;;;14.35;;
27977;SDS011;15314;49.248;6.968;2023-04-25T01:09:16;18.65;;;16.88;;
27977;SDS011;15314;49.248;6.968;2023-04-25T01:10:16;15.10;;;13.80;;
27977;SDS011;15314;49.248;6.968;2023-04-25T01:11:17;16.38;;;14.77;;
27977;SDS011;15314;49.248;6.968;2023-04-25T01:12:18;16.17;;;14.77;;
27977;SDS011;15314;49.248;6.968;2023-04-25T01:13:18;15.52;;;14.30;;
27977;SDS011;15314;49.248;6.968;2023-04-25T01:14:20;14.52;;;13.32;;
27977;SDS011;15314;49.248;6.968;2023-04-25T01:15:20;15.77;;;14.40;;
27977;SDS011;15314;49.248;6.968;2023-04-25T01:16:21;16.23;;;14.82;;
27977;SDS011;15314;49.248;6.968;2023-04-25T01:17:23;17.17;;;15.57;;
27977;SDS011;15314;49.248;6.968;2023-04-25T01:18:24;15.95;;;14.38;;
27977;SDS011;15314;49.248;6.968;2023-04-25T01:19:25;15.18;;;13.88;;
27977;SDS011;15314;49.248;6.968;2023-04-25T01:20:26;14.48;;;13.38;;
27977;SDS011;15314;49.248;6.968;2023-04-25T01:21:28;15.02;;;13.63;;
27977;SDS011;15314;49.248;6.968;2023-04-25T01:22:31;15.35;;;13.90;;
27977;SDS011;15314;49.248;6.968;2023-04-25T01:23:32;14.75;;;13.55;;
27977;SDS011;15314;49.248;6.968;2023-04-25T01:24:33;15.57;;;14.27;;
27977;SDS011;15314;49.248;6.968;2023-04-25T01:25:34;15.27;;;13.75;;
27977;SDS011;15314;49.248;6.968;2023-04-25T01:26:35;14.57;;;13.48;;
27977;SDS011;15314;49.248;6.968;2023-04-25T01:27:36;15.40;;;14.10;;
27977;SDS011;15314;49.248;6.968;2023-04-25T01:28:38;15.38;;;13.85;;
27977;SDS011;15314;49.248;6.968;2023-04-25T01:29:42;15.05;;;13.65;;
27977;SDS011;15314;49.248;6.968;2023-04-25T01:30:43;14.30;;;13.20;;
27977;SDS011;15314;49.248;6.968;2023-04-25T01:31:44;14.65;;;13.45;;
27977;SDS011;15314;49.248;6.968;2023-04-25T01:32:45;15.02;;;13.73;;
27977;SDS011;15314;49.248;6.968;2023-04-25T01:33:47;15.00;;;13.73;;
27977;SDS011;15314;49.248;6.968;2023-04-25T01:34:48;14.90;;;13.80;;
27977;SDS011;15314;49.248;6.968;2023-04-25T01:35:49;13.80;;;12.80;;
27977;SDS011;15314;49.248;6.968;2023-04-25T01:36:50;14.07;;;13.02;;
27977;SDS011;15314;49.248;6.968;2023-04-25T01:37:51;13.98;;;12.88;;
27977;SDS011;15314;49.248;6.968;2023-04-25T01:38:52;13.20;;;12.25;;
27977;SDS011;15314;49.248;6.968;2023-04-25T01:39:53;14.02;;;12.73;;
27977;SDS011;15314;49.248;6.968;2023-04-25T01:40:54;14.15;;;12.85;;
27977;SDS011;15314;49.248;6.968;2023-04-25T01:41:55;14.48;;;13.30;;
27977;SDS011;15314;49.248;6.968;2023-04-25T01:42:56;13.63;;;12.43;;
27977;SDS011;15314;49.248;6.968;2023-04-25T01:43:57;14.48;;;13.07;;
27977;SDS011;15314;49.248;6.968;2023-04-25T01:44:58;13.80;;;12.80;;
27977;SDS011;15314;49.248;6.968;2023-04-25T01:45:59;13.85;;;12.57;;
27977;SDS011;15314;49.248;6.968;2023-04-25T01:47:00;14.10;;;13.02;;
27977;SDS011;15314;49.248;6.968;2023-04-25T01:48:00;14.38;;;13.27;;
27977;SDS011;15314;49.248;6.968;2023-04-25T01:49:01;14.95;;;13.75;;
27977;SDS011;15314;49.248;6.968;2023-04-25T01:50:02;14.50;;;13.40;;
27977;SDS011;15314;49.248;6.968;2023-04-25T01:51:04;14.77;;;13.57;;
27977;SDS011;15314;49.248;6.968;2023-04-25T01:52:05;14.57;;;13.38;;
27977;SDS011;15314;49.248;6.968;2023-04-25T01:53:05;14.60;;;13.23;;
27977;SDS011;15314;49.248;6.968;2023-04-25T01:54:07;15.00;;;13.70;;
27977;SDS011;15314;49.248;6.968;2023-04-25T01:55:09;13.35;;;12.32;;
27977;SDS011;15314;49.248;6.968;2023-04-25T01:56:10;14.40;;;13.13;;
27977;SDS011;15314;49.248;6.968;2023-04-25T01:57:11;16.33;;;14.70;;
27977;SDS011;15314;49.248;6.968;2023-04-25T01:58:12;14.55;;;13.38;;
27977;SDS011;15314;49.248;6.968;2023-04-25T01:59:13;14.23;;;13.02;;
27977;SDS011;15314;49.248;6.968;2023-04-25T02:00:13;12.63;;;11.60;;
27977;SDS011;15314;49.248;6.968;2023-04-25T02:01:14;12.38;;;11.48;;
27977;SDS011;15314;49.248;6.968;2023-04-25T02:02:15;12.02;;;11.13;;
27977;SDS011;15314;49.248;6.968;2023-04-25T02:03:16;13.77;;;12.77;;
27977;SDS011;15314;49.248;6.968;2023-04-25T02:04:16;13.02;;;12.10;;
27977;SDS011;15314;49.248;6.968;2023-04-25T02:05:17;13.50;;;12.23;;
27977;SDS011;15314;49.248;6.968;2023-04-25T02:06:18;12.55;;;11.65;;
27977;SDS011;15314;49.248;6.968;2023-04-25T02:07:18;12.48;;;11.68;;
27977;SDS011;15314;49.248;6.968;2023-04-25T02:08:19;13.32;;;12.27;;
27977;SDS011;15314;49.248;6.968;2023-04-25T02:09:20;13.10;;;12.05;;
27977;SDS011;15314;49.248;6.968;2023-04-25T02:10:20;14.55;;;13.30;;
27977;SDS011;15314;49.248;6.968;2023-04-25T02:11:21;14.80;;;13.30;;
27977;SDS011;15314;49.248;6.968;2023-04-25T02:12:22;13.75;;;12.73;;
27977;SDS011;15314;49.248;6.968;2023-04-25T02:13:23;12.55;;;11.55;;
27977;SDS011;15314;49.248;6.968;2023-04-25T02:14:23;14.40;;;13.20;;
27977;SDS011;15314;49.248;6.968;2023-04-25T02:15:24;14.48;;;13.32;;
27977;SDS011;15314;49.248;6.968;2023-04-25T02:16:25;13.95;;;12.95;;
27977;SDS011;15314;49.248;6.968;2023-04-25T02:17:25;14.27;;;12.88;;
27977;SDS011;15314;49.248;6.968;2023-04-25T02:18:26;14.18;;;12.88;;
27977;SDS011;15314;49.248;6.968;2023-04-25T02:19:27;15.02;;;13.82;;
27977;SDS011;15314;49.248;6.968;2023-04-25T02:20:28;14.43;;;13.25;;
27977;SDS011;15314;49.248;6.968;2023-04-25T02:21:30;13.77;;;12.68;;
27977;SDS011;15314;49.248;6.968;2023-04-25T02:22:31;14.45;;;13.25;;
27977;SDS011;15314;49.248;6.968;2023-04-25T02:23:33;13.88;;;12.88;;
27977;SDS011;15314;49.248;6.968;2023-04-25T02:24:34;13.85;;;12.73;;
27977;SDS011;15314;49.248;6.968;2023-04-25T02:25:35;13.57;;;12.43;;
27977;SDS011;15314;49.248;6.968;2023-04-25T02:26:36;15.20;;;13.88;;
27977;SDS011;15314;49.248;6.968;2023-04-25T02:27:36;14.55;;;13.38;;
27977;SDS011;15314;49.248;6.968;2023-04-25T02:28:37;15.05;;;13.75;;
27977;SDS011;15314;49.248;6.968;2023-04-25T02:29:38;14.30;;;13.18;;
27977;SDS011;15314;49.248;6.968;2023-04-25T02:30:38;14.88;;;13.68;;
27977;SDS011;15314;49.248;6.968;2023-04-25T02:31:39;15.35;;;14.15;;
27977;SDS011;15314;49.248;6.968;2023-04-25T02:32:40;15.00;;;13.80;;
27977;SDS011;15314;49.248;6.968;2023-04-25T02:33:41;15.35;;;13.63;;
27977;SDS011;15314;49.248;6.968;2023-04-25T02:34:42;15.52;;;14.23;;
27977;SDS011;15314;49.248;6.968;2023-04-25T02:35:43;14.80;;;13.70;;
27977;SDS011;15314;49.248;6.968;2023-04-25T02:36:44;15.57;;;14.25;;
27977;SDS011;15314;49.248;6.968;2023-04-25T02:37:45;14.27;;;12.95;;
27977;SDS011;15314;49.248;6.968;2023-04-25T02:38:45;14.82;;;13.65;;
27977;SDS011;15314;49.248;6.968;2023-04-25T02:39:46;13.70;;;12.57;;
27977;SDS011;15314;49.248;6.968;2023-04-25T02:40:47;14.38;;;13.20;;
27977;SDS011;15314;49.248;6.968;2023-04-25T02:41:47;16.25;;;14.77;;
27977;SDS011;15314;49.248;6.968;2023-04-25T02:42:48;15.80;;;14.48;;
27977;SDS011;15314;49.248;6.968;2023-04-25T02:43:49;17.45;;;15.75;;
27977;SDS011;15314;49.248;6.968;2023-04-25T02:44:49;16.48;;;15.02;;
27977;SDS011;15314;49.248;6.968;2023-04-25T02:45:50;15.35;;;14.15;;
27977;SDS011;15314;49.248;6.968;2023-04-25T02:46:51;15.65;;;14.13;;
27977;SDS011;15314;49.248;6.968;2023-04-25T02:47:52;14.82;;;13.77;;
27977;SDS011;15314;49.248;6.968;2023-04-25T02:48:52;14.98;;;13.82;;
27977;SDS011;15314;49.248;6.968;2023-04-25T02:49:53;15.02;;;13.65;;
27977;SDS011;15314;49.248;6.968;2023-04-25T02:50:54;18.75;;;17.15;;
27977;SDS011;15314;49.248;6.968;2023-04-25T02:51:54;19.83;;;17.75;;
27977;SDS011;15314;49.248;6.968;2023-04-25T02:52:55;18.23;;;16.70;;
27977;SDS011;15314;49.248;6.968;2023-04-25T02:53:56;20.45;;;18.38;;
27977;SDS011;15314;49.248;6.968;2023-04-25T02:54:56;15.93;;;14.65;;
27977;SDS011;15314;49.248;6.968;2023-04-25T02:55:57;15.45;;;14.15;;
27977;SDS011;15314;49.248;6.968;2023-04-25T02:56:59;18.90;;;17.25;;
27977;SDS011;15314;49.248;6.968;2023-04-25T02:58:00;17.40;;;15.70;;
27977;SDS011;15314;49.248;6.968;2023-04-25T02:59:01;16.05;;;14.75;;
27977;SDS011;15314;49.248;6.968;2023-04-25T03:00:02;17.13;;;15.63;;
27977;SDS011;15314;49.248;6.968;2023-04-25T03:01:05;14.80;;;13.63;;
27977;SDS011;15314;49.248;6.968;2023-04-25T03:02:05;17.83;;;15.90;;
27977;SDS011;15314;49.248;6.968;2023-04-25T03:03:06;19.42;;;17.73;;
27977;SDS011;15314;49.248;6.968;2023-04-25T03:04:07;20.70;;;18.50;;
27977;SDS011;15314;49.248;6.968;2023-04-25T03:05:07;16.20;;;15.00;;
27977;SDS011;15314;49.248;6.968;2023-04-25T03:06:08;19.02;;;17.23;;
27977;SDS011;15314;49.248;6.968;2023-04-25T03:07:09;23.58;;;21.08;;
27977;SDS011;15314;49.248;6.968;2023-04-25T03:08:10;23.02;;;20.83;;
27977;SDS011;15314;49.248;6.968;2023-04-25T03:09:10;21.38;;;19.25;;
27977;SDS011;15314;49.248;6.968;2023-04-25T03:10:11;23.20;;;20.92;;
27977;SDS011;15314;49.248;6.968;2023-04-25T03:11:12;23.52;;;19.92;;
27977;SDS011;15314;49.248;6.968;2023-04-25T03:12:13;24.48;;;21.98;;
27977;SDS011;15314;49.248;6.968;2023-04-25T03:13:13;19.80;;;18.05;;
27977;SDS011;15314;49.248;6.968;2023-04-25T03:14:14;20.40;;;18.38;;
27977;SDS011;15314;49.248;6.968;2023-04-25T03:15:15;23.70;;;21.00;;
27977;SDS011;15314;49.248;6.968;2023-04-25T03:16:16;23.05;;;20.38;;
27977;SDS011;15314;49.248;6.968;2023-04-25T03:17:17;18.85;;;17.08;;
27977;SDS011;15314;49.248;6.968;2023-04-25T03:18:18;21.25;;;19.00;;
27977;SDS011;15314;49.248;6.968;2023-04-25T03:19:18;20.23;;;18.30;;
27977;SDS011;15314;49.248;6.968;2023-04-25T03:20:20;19.20;;;17.42;;
27977;SDS011;15314;49.248;6.968;2023-04-25T03:21:21;20.75;;;17.38;;
27977;SDS011;15314;49.248;6.968;2023-04-25T03:22:21;18.70;;;16.90;;
27977;SDS011;15314;49.248;6.968;2023-04-25T03:23:22;21.35;;;18.98;;
27977;SDS011;15314;49.248;6.968;2023-04-25T03:24:23;17.50;;;15.80;;
27977;SDS011;15314;49.248;6.968;2023-04-25T03:25:23;19.02;;;17.33;;
27977;SDS011;15314;49.248;6.968;2023-04-25T03:26:24;17.20;;;15.50;;
27977;SDS011;15314;49.248;6.968;2023-04-25T03:27:25;18.58;;;17.00;;
27977;SDS011;15314;49.248;6.968;2023-04-25T03:28:26;18.02;;;16.48;;
27977;SDS011;15314;49.248;6.968;2023-04-25T03:29:27;17.90;;;16.27;;
27977;SDS011;15314;49.248;6.968;2023-04-25T03:30:28;15.63;;;14.32;;
27977;SDS011;15314;49.248;6.968;2023-04-25T03:31:29;17.67;;;15.98;;
27977;SDS011;15314;49.248;6.968;2023-04-25T03:32:30;16.05;;;14.75;;
27977;SDS011;15314;49.248;6.968;2023-04-25T03:33:31;16.38;;;14.88;;
27977;SDS011;15314;49.248;6.968;2023-04-25T03:34:32;18.00;;;16.20;;
27977;SDS011;15314;49.248;6.968;2023-04-25T03:35:33;17.50;;;15.90;;
27977;SDS011;15314;49.248;6.968;2023-04-25T03:36:33;17.02;;;15.63;;
27977;SDS011;15314;49.248;6.968;2023-04-25T03:37:34;18.20;;;16.73;;
27977;SDS011;15314;49.248;6.968;2023-04-25T03:38:35;17.33;;;15.95;;
27977;SDS011;15314;49.248;6.968;2023-04-25T03:39:36;17.90;;;16.50;;
27977;SDS011;15314;49.248;6.968;2023-04-25T03:40:37;23.52;;;21.02;;
27977;SDS011;15314;49.248;6.968;2023-04-25T03:41:38;17.83;;;16.17;;
27977;SDS011;15314;49.248;6.968;2023-04-25T03:42:38;19.45;;;17.75;;
27977;SDS011;15314;49.248;6.968;2023-04-25T03:43:39;18.70;;;17.08;;
27977;SDS011;15314;49.248;6.968;2023-04-25T03:44:40;19.75;;;17.95;;
27977;SDS011;15314;49.248;6.968;2023-04-25T03:45:41;20.35;;;18.50;;
27977;SDS011;15314;49.248;6.968;2023-04-25T03:46:41;18.55;;;17.15;;
27977;SDS011;15314;49.248;6.968;2023-04-25T03:47:42;19.27;;;17.65;;
27977;SDS011;15314;49.248;6.968;2023-04-25T03:48:43;18.17;;;16.67;;
27977;SDS011;15314;49.248;6.968;2023-04-25T03:49:44;22.33;;;20.35;;
27977;SDS011;15314;49.248;6.968;2023-04-25T03:50:45;19.13;;;17.30;;
27977;SDS011;15314;49.248;6.968;2023-04-25T03:51:46;19.88;;;17.98;;
27977;SDS011;15314;49.248;6.968;2023-04-25T03:52:46;19.13;;;17.42;;
27977;SDS011;15314;49.248;6.968;2023-04-25T03:53:47;18.63;;;16.92;;
27977;SDS011;15314;49.248;6.968;2023-04-25T03:54:48;19.75;;;17.77;;
27977;SDS011;15314;49.248;6.968;2023-04-25T03:55:49;23.98;;;21.40;;
27977;SDS011;15314;49.248;6.968;2023-04-25T03:56:49;18.13;;;16.55;;
27977;SDS011;15314;49.248;6.968;2023-04-25T03:57:50;16.85;;;15.25;;
27977;SDS011;15314;49.248;6.968;2023-04-25T03:58:51;17.65;;;15.77;;
27977;SDS011;15314;49.248;6.968;2023-04-25T03:59:51;18.67;;;16.95;;
27977;SDS011;15314;49.248;6.968;2023-04-25T04:00:52;18.83;;;16.98;;
27977;SDS011;15314;49.248;6.968;2023-04-25T04:01:53;19.80;;;18.00;;
27977;SDS011;15314;49.248;6.968;2023-04-25T04:02:54;16.98;;;15.40;;
27977;SDS011;15314;49.248;6.968;2023-04-25T04:03:55;17.92;;;16.33;;
27977;SDS011;15314;49.248;6.968;2023-04-25T04:04:55;15.88;;;14.45;;
27977;SDS011;15314;49.248;6.968;2023-04-25T04:05:56;17.58;;;16.02;;
27977;SDS011;15314;49.248;6.968;2023-04-25T04:06:57;15.30;;;13.98;;
27977;SDS011;15314;49.248;6.968;2023-04-25T04:07:58;16.58;;;15.07;;
27977;SDS011;15314;49.248;6.968;2023-04-25T04:08:59;15.63;;;14.32;;
27977;SDS011;15314;49.248;6.968;2023-04-25T04:10:00;15.23;;;13.95;;
27977;SDS011;15314;49.248;6.968;2023-04-25T04:11:00;16.35;;;15.05;;
27977;SDS011;15314;49.248;6.968;2023-04-25T04:12:01;17.65;;;15.70;;
27977;SDS011;15314;49.248;6.968;2023-04-25T04:13:02;22.35;;;19.83;;
27977;SDS011;15314;49.248;6.968;2023-04-25T04:14:03;21.02;;;18.92;;
27977;SDS011;15314;49.248;6.968;2023-04-25T04:15:06;15.80;;;14.50;;
27977;SDS011;15314;49.248;6.968;2023-04-25T04:16:08;18.52;;;14.90;;
27977;SDS011;15314;49.248;6.968;2023-04-25T04:17:08;16.88;;;15.48;;
27977;SDS011;15314;49.248;6.968;2023-04-25T04:18:09;17.33;;;15.73;;
27977;SDS011;15314;49.248;6.968;2023-04-25T04:19:10;16.42;;;14.93;;
27977;SDS011;15314;49.248;6.968;2023-04-25T04:20:11;15.57;;;14.27;;
27977;SDS011;15314;49.248;6.968;2023-04-25T04:21:12;16.13;;;14.73;;
27977;SDS011;15314;49.248;6.968;2023-04-25T04:22:12;16.95;;;15.48;;
27977;SDS011;15314;49.248;6.968;2023-04-25T04:23:13;18.80;;;17.00;;
27977;SDS011;15314;49.248;6.968;2023-04-25T04:24:14;16.50;;;15.15;;
27977;SDS011;15314;49.248;6.968;2023-04-25T04:25:16;15.57;;;14.27;;
27977;SDS011;15314;49.248;6.968;2023-04-25T04:26:18;18.30;;;16.67;;
27977;SDS011;15314;49.248;6.968;2023-04-25T04:27:18;18.15;;;16.65;;
27977;SDS011;15314;49.248;6.968;2023-04-25T04:28:19;21.92;;;19.60;;
27977;SDS011;15314;49.248;6.968;2023-04-25T04:29:21;18.10;;;16.55;;
27977;SDS011;15314;49.248;6.968;2023-04-25T04:30:23;21.27;;;19.15;;
27977;SDS011;15314;49.248;6.968;2023-04-25T04:31:24;17.98;;;16.38;;
27977;SDS011;15314;49.248;6.968;2023-04-25T04:32:25;17.73;;;16.05;;
27977;SDS011;15314;49.248;6.968;2023-04-25T04:33:25;17.15;;;15.75;;
27977;SDS011;15314;49.248;6.968;2023-04-25T04:34:26;18.40;;;16.80;;
27977;SDS011;15314;49.248;6.968;2023-04-25T04:35:27;17.95;;;16.35;;
27977;SDS011;15314;49.248;6.968;2023-04-25T04:36:27;17.45;;;15.75;;
27977;SDS011;15314;49.248;6.968;2023-04-25T04:37:28;18.35;;;16.83;;
27977;SDS011;15314;49.248;6.968;2023-04-25T04:38:29;23.23;;;20.85;;
27977;SDS011;15314;49.248;6.968;2023-04-25T04:39:30;19.73;;;17.92;;
27977;SDS011;15314;49.248;6.968;2023-04-25T04:40:31;23.77;;;21.25;;
27977;SDS011;15314;49.248;6.968;2023-04-25T04:41:32;20.85;;;18.85;;
27977;SDS011;15314;49.248;6.968;2023-04-25T04:42:32;20.38;;;18.48;;
27977;SDS011;15314;49.248;6.968;2023-04-25T04:43:33;20.38;;;18.52;;
27977;SDS011;15314;49.248;6.968;2023-04-25T04:44:34;21.33;;;17.10;;
27977;SDS011;15314;49.248;6.968;2023-04-25T04:45:35;19.33;;;17.58;;
27977;SDS011;15314;49.248;6.968;2023-04-25T04:46:38;19.35;;;17.55;;
27977;SDS011;15314;49.248;6.968;2023-04-25T04:47:41;20.45;;;18.55;;
27977;SDS011;15314;49.248;6.968;2023-04-25T04:48:42;19.63;;;17.92;;
27977;SDS011;15314;49.248;6.968;2023-04-25T04:49:44;20.10;;;18.10;;
27977;SDS011;15314;49.248;6.968;2023-04-25T04:50:45;19.70;;;18.00;;
27977;SDS011;15314;49.248;6.968;2023-04-25T04:51:46;20.33;;;17.92;;
27977;SDS011;15314;49.248;6.968;2023-04-25T04:52:47;19.83;;;18.17;;
27977;SDS011;15314;49.248;6.968;2023-04-25T04:53:47;20.17;;;18.38;;
27977;SDS011;15314;49.248;6.968;2023-04-25T04:54:48;19.70;;;17.95;;
27977;SDS011;15314;49.248;6.968;2023-04-25T04:55:49;21.38;;;19.40;;
27977;SDS011;15314;49.248;6.968;2023-04-25T04:56:50;20.77;;;18.63;;
27977;SDS011;15314;49.248;6.968;2023-04-25T04:57:52;19.35;;;17.42;;
27977;SDS011;15314;49.248;6.968;2023-04-25T04:58:53;19.58;;;17.58;;
27977;SDS011;15314;49.248;6.968;2023-04-25T04:59:54;19.80;;;18.02;;
27977;SDS011;15314;49.248;6.968;2023-04-25T05:00:55;17.15;;;15.75;;
27977;SDS011;15314;49.248;6.968;2023-04-25T05:01:55;17.90;;;16.20;;
27977;SDS011;15314;49.248;6.968;2023-04-25T05:02:56;17.73;;;16.02;;
27977;SDS011;15314;49.248;6.968;2023-04-25T05:03:57;18.10;;;16.40;;
27977;SDS011;15314;49.248;6.968;2023-04-25T05:05:00;19.35;;;17.50;;
27977;SDS011;15314;49.248;6.968;2023-04-25T05:06:01;19.90;;;17.95;;
27977;SDS011;15314;49.248;6.968;2023-04-25T05:07:02;19.95;;;18.17;;
27977;SDS011;15314;49.248;6.968;2023-04-25T05:08:03;20.60;;;17.98;;
27977;SDS011;15314;49.248;6.968;2023-04-25T05:09:04;20.50;;;18.65;;
27977;SDS011;15314;49.248;6.968;2023-04-25T05:10:04;18.20;;;16.55;;
27977;SDS011;15314;49.248;6.968;2023-04-25T05:11:06;16.65;;;15.10;;
27977;SDS011;15314;49.248;6.968;2023-04-25T05:12:06;17.05;;;15.60;;
27977;SDS011;15314;49.248;6.968;2023-04-25T05:13:07;15.65;;;14.25;;
27977;SDS011;15314;49.248;6.968;2023-04-25T05:14:08;17.10;;;15.60;;
27977;SDS011;15314;49.248;6.968;2023-04-25T05:15:08;17.42;;;15.85;;
27977;SDS011;15314;49.248;6.968;2023-04-25T05:16:09;16.05;;;14.80;;
27977;SDS011;15314;49.248;6.968;2023-04-25T05:17:10;15.95;;;14.55;;
27977;SDS011;15314;49.248;6.968;2023-04-25T05:18:11;15.73;;;14.35;;
27977;SDS011;15314;49.248;6.968;2023-04-25T05:19:12;15.48;;;14.25;;
27977;SDS011;15314;49.248;6.968;2023-04-25T05:20:12;18.10;;;16.50;;
27977;SDS011;15314;49.248;6.968;2023-04-25T05:21:14;21.77;;;19.48;;
27977;SDS011;15314;49.248;6.968;2023-04-25T05:22:14;17.38;;;15.88;;
27977;SDS011;15314;49.248;6.968;2023-04-25T05:23:15;16.05;;;14.65;;
27977;SDS011;15314;49.248;6.968;2023-04-25T05:24:16;17.00;;;15.40;;
27977;SDS011;15314;49.248;6.968;2023-04-25T05:25:17;17.05;;;15.68;;
27977;SDS011;15314;49.248;6.968;2023-04-25T05:26:18;15.43;;;14.18;;
27977;SDS011;15314;49.248;6.968;2023-04-25T05:27:18;15.43;;;14.23;;
27977;SDS011;15314;49.248;6.968;2023-04-25T05:28:19;17.27;;;15.88;;
27977;SDS011;15314;49.248;6.968;2023-04-25T05:29:21;18.65;;;17.02;;
27977;SDS011;15314;49.248;6.968;2023-04-25T05:30:21;18.65;;;16.95;;
27977;SDS011;15314;49.248;6.968;2023-04-25T05:31:22;17.35;;;15.75;;
27977;SDS011;15314;49.248;6.968;2023-04-25T05:32:23;18.65;;;17.05;;
27977;SDS011;15314;49.248;6.968;2023-04-25T05:33:25;17.10;;;15.48;;
27977;SDS011;15314;49.248;6.968;2023-04-25T05:34:25;20.10;;;18.35;;
27977;SDS011;15314;49.248;6.968;2023-04-25T05:35:26;16.75;;;15.32;;
27977;SDS011;15314;49.248;6.968;2023-04-25T05:36:27;21.10;;;18.98;;
27977;SDS011;15314;49.248;6.968;2023-04-25T05:37:28;18.10;;;16.30;;
27977;SDS011;15314;49.248;6.968;2023-04-25T05:38:31;22.17;;;19.90;;
27977;SDS011;15314;49.248;6.968;2023-04-25T05:39:31;22.20;;;20.15;;
27977;SDS011;15314;49.248;6.968;2023-04-25T05:40:32;23.77;;;21.15;;
27977;SDS011;15314;49.248;6.968;2023-04-25T05:41:33;26.58;;;23.30;;
27977;SDS011;15314;49.248;6.968;2023-04-25T05:42:33;19.25;;;17.45;;
27977;SDS011;15314;49.248;6.968;2023-04-25T05:43:37;21.30;;;19.23;;
27977;SDS011;15314;49.248;6.968;2023-04-25T05:44:37;20.75;;;18.95;;
27977;SDS011;15314;49.248;6.968;2023-04-25T05:45:38;20.83;;;18.80;;
27977;SDS011;15314;49.248;6.968;2023-04-25T05:46:39;20.63;;;18.83;;
27977;SDS011;15314;49.248;6.968;2023-04-25T05:47:40;20.88;;;19.15;;
27977;SDS011;15314;49.248;6.968;2023-04-25T05:48:41;20.40;;;18.60;;
27977;SDS011;15314;49.248;6.968;2023-04-25T05:49:41;20.08;;;18.35;;
27977;SDS011;15314;49.248;6.968;2023-04-25T05:50:42;21.63;;;19.83;;
27977;SDS011;15314;49.248;6.968;2023-04-25T05:51:43;23.65;;;21.27;;
27977;SDS011;15314;49.248;6.968;2023-04-25T05:52:43;20.25;;;18.30;;
27977;SDS011;15314;49.248;6.968;2023-04-25T05:53:44;21.13;;;18.95;;
27977;SDS011;15314;49.248;6.968;2023-04-25T05:54:45;18.65;;;17.15;;
27977;SDS011;15314;49.248;6.968;2023-04-25T05:55:46;18.55;;;16.77;;
27977;SDS011;15314;49.248;6.968;2023-04-25T05:56:47;20.27;;;18.58;;